Buoy 13526

sailwx.info

Track history (hours):
 
Tides and Currents Weather Stations Pressure Air Temp Water Temp Dewpoint Dewpoint Depression Visibility Wind Speed Wind Dir Waves Ship Positions

Drifting buoy 13526

Last reported at 2014-Nov-27 12:38 UTC. Time now 2014-Nov-27 14:10 UTC.
Position N 26°43' W 039°03'.

Water temperature 24.2 ° C

Date/timePositionNaut miles runAvg speedWind from/ knotsBaromVisibWave heightAir tempDewpointWater temp
2014-Nov-27 12:38N 26°43' W 039°03'1 5.4 24.2
2014-Nov-27 12:32N 26°43' W 039°02'1 0.8 24.2
2014-Nov-27 10:55N 26°42' W 039°01'0 0.0 24.2
2014-Nov-27 09:56N 26°42' W 039°01'1 4.3 24.2
2014-Nov-27 09:39N 26°43' W 039°00'0 0.0 24.2
2014-Nov-27 09:00N 26°43' W 039°00'0 0.0 24.2
2014-Nov-27 08:54N 26°43' W 039°00'0 0.0 24.2
2014-Nov-27 08:18N 26°43' W 039°00'1 1.4 24.2
2014-Nov-27 07:56N 26°42' W 039°01'011.3 24.2
2014-Nov-27 07:55N 26°43' W 039°01'0 0.0 24.2
2014-Nov-27 07:19N 26°43' W 039°01'0 0.0 24.2
2014-Nov-27 06:35N 26°43' W 039°01'0 0.0 24.2
2014-Nov-27 06:16N 26°43' W 039°01'0 0.0 24.2
2014-Nov-27 05:38N 26°43' W 039°01'0 0.0 24.2
2014-Nov-27 05:27N 26°43' W 039°01'0 0.0 24.2
2014-Nov-27 05:21N 26°43' W 039°01'0 0.0 24.2
2014-Nov-27 03:48N 26°43' W 039°01'216.1 24.2
2014-Nov-27 03:42N 26°41' W 038°59'0 0.1 24.2
2014-Nov-27 01:08N 26°42' W 038°59'166.1 24.3
2014-Nov-27 01:07N 26°42' W 039°01'0 0.0 24.3
2014-Nov-27 00:19N 26°42' W 039°01'0 0.0 24.3
2014-Nov-27 00:16N 26°42' W 039°01'1 1.4 24.3
2014-Nov-26 23:29N 26°42' W 038°59'0 0.0 24.3
2014-Nov-26 22:41N 26°42' W 038°59'0 0.0 24.3
2014-Nov-26 22:36N 26°42' W 038°59'112.3 24.3
2014-Nov-26 22:30N 26°41' W 038°58'0 0.1 24.3
2014-Nov-26 21:09N 26°41' W 038°58'0 0.1 24.3
2014-Nov-26 20:32N 26°41' W 038°58'2 1.8 24.3
2014-Nov-26 19:39N 26°43' W 038°59'0 0.0 24.3
2014-Nov-26 19:22N 26°43' W 038°59'0 0.0 24.3
2014-Nov-26 18:56N 26°43' W 038°59'0 0.0 24.3
2014-Nov-26 18:53N 26°43' W 038°59'0 0.0 24.3
2014-Nov-26 17:56N 26°43' W 038°59'1 1.3 24.4
2014-Nov-26 17:08N 26°43' W 038°58'0 0.0 24.4
2014-Nov-26 17:02N 26°43' W 038°58'1 0.4 24.4
2014-Nov-26 15:21N 26°42' W 038°58'1 0.4 24.4
2014-Nov-26 13:54N 26°42' W 038°58'1 0.6 24.4
2014-Nov-26 13:00N 26°42' W 038°57'0 0.4 24.4
2014-Nov-26 12:08N 26°42' W 038°57'116.1 24.4
2014-Nov-26 12:05N 26°41' W 038°56'1 0.7 24.4
2014-Nov-26 11:16N 26°42' W 038°56'0 0.0 24.4
2014-Nov-26 09:54N 26°42' W 038°56'1 0.7 24.4
2014-Nov-26 09:08N 26°42' W 038°56'1 1.8 24.4
2014-Nov-26 08:50N 26°42' W 038°56'1 1.0 24.3
2014-Nov-26 08:16N 26°42' W 038°56'0 0.1 24.4
2014-Nov-26 07:09N 26°42' W 038°56'2 3.4 24.4
2014-Nov-26 06:41N 26°42' W 038°54'0 0.0 24.4
2014-Nov-26 05:38N 26°42' W 038°54'1 0.7 24.4
2014-Nov-26 03:56N 26°43' W 038°55'112.1 24.4
2014-Nov-26 03:52N 26°42' W 038°55'1 0.4 24.4
2014-Nov-26 00:39N 26°41' W 038°56'0 0.0 24.4
2014-Nov-25 23:52N 26°41' W 038°56'211.1 24.4
2014-Nov-25 23:43N 26°41' W 038°54'0 0.1 24.4
2014-Nov-25 23:00N 26°41' W 038°54'1 4.0 24.4
2014-Nov-25 22:52N 26°41' W 038°53'0 0.0 24.4
2014-Nov-25 21:40N 26°41' W 038°53'1 1.4 24.4
2014-Nov-25 20:42N 26°42' W 038°52'0 0.3 24.4
2014-Nov-25 20:03N 26°42' W 038°52'0 0.0 24.4
2014-Nov-25 19:07N 26°42' W 038°52'1 7.2 24.5
2014-Nov-25 19:02N 26°41' W 038°52'0 0.0 24.5
2014-Nov-25 19:00N 26°41' W 038°52'1 1.9 24.5
2014-Nov-25 18:22N 26°43' W 038°52'0 0.1 24.5
2014-Nov-25 17:22N 26°43' W 038°52'1 6.2 24.5
2014-Nov-25 17:13N 26°42' W 038°53'111.2 24.5
2014-Nov-25 17:08N 26°43' W 038°52'1 0.4 24.5
2014-Nov-25 15:33N 26°42' W 038°53'1 0.2 24.5
2014-Nov-25 12:37N 26°43' W 038°52'1 4.0 24.4
2014-Nov-25 12:29N 26°43' W 038°53'0 0.0 24.4
2014-Nov-25 12:26N 26°43' W 038°53'0 0.0 24.4
2014-Nov-25 11:45N 26°43' W 038°53'110.7 24.4
2014-Nov-25 11:42N 26°43' W 038°52'1 6.0 24.4
2014-Nov-25 11:36N 26°43' W 038°52'0 0.0 24.4
2014-Nov-25 10:47N 26°43' W 038°52'1 0.9
2014-Nov-25 09:21N 26°43' W 038°51'0 0.0 24.4
2014-Nov-25 08:42N 26°43' W 038°51'0 0.0 24.4
2014-Nov-25 07:41N 26°43' W 038°51'136.0 24.4
2014-Nov-25 07:40N 26°42' W 038°51'0 0.0 24.4
2014-Nov-25 06:03N 26°42' W 038°51'1 4.5 24.4
2014-Nov-25 05:55N 26°43' W 038°51'0 0.0 24.4
2014-Nov-25 05:51N 26°43' W 038°51'0 0.0 24.4
2014-Nov-25 05:48N 26°43' W 038°51'0 3.4 24.4
2014-Nov-25 05:43N 26°43' W 038°51'0 0.2 24.4
2014-Nov-25 04:10N 26°43' W 038°51'1 9.2 24.5
2014-Nov-25 04:03N 26°43' W 038°50'0 0.0 24.5
2014-Nov-25 00:56N 26°43' W 038°50'0 0.0 24.5
2014-Nov-25 00:55N 26°43' W 038°50'0 0.0 24.5
2014-Nov-25 00:10N 26°43' W 038°50'0 0.0 24.5
2014-Nov-25 00:07N 26°43' W 038°50'110.7 24.5
2014-Nov-25 00:04N 26°43' W 038°50'0 0.0 24.5
2014-Nov-24 23:18N 26°43' W 038°50'0 0.0 24.5
2014-Nov-24 23:12N 26°43' W 038°50'1 1.4 24.5
2014-Nov-24 22:26N 26°43' W 038°49'0 0.0 24.5
2014-Nov-24 22:09N 26°43' W 038°49'1 0.5 24.5
2014-Nov-24 20:26N 26°43' W 038°49'1 0.5 24.5
2014-Nov-24 19:17N 26°43' W 038°48'121.4 24.5
2014-Nov-24 19:14N 26°43' W 038°49'2 3.6 24.5
2014-Nov-24 18:47N 26°43' W 038°47'1 0.7 24.5
2014-Nov-24 17:36N 26°44' W 038°48'1 3.4 24.5
2014-Nov-24 17:22N 26°44' W 038°49'0 0.0 24.5
2014-Nov-24 15:41N 26°44' W 038°49'1 0.6 24.5
2014-Nov-24 13:45N 26°45' W 038°47'1 0.7 24.5
2014-Nov-24 12:56N 26°46' W 038°47'1 6.4 24.5
2014-Nov-24 12:51N 26°46' W 038°48'0 0.0 24.5
2014-Nov-24 12:00N 26°46' W 038°48'1 8.0 24.5
2014-Nov-24 11:56N 26°46' W 038°49'0 0.0 24.5
2014-Nov-24 11:08N 26°46' W 038°49'0 0.0 24.5
2014-Nov-24 09:50N 26°46' W 038°49'1 1.8 24.5
2014-Nov-24 09:32N 26°46' W 038°48'0 0.0 24.5
2014-Nov-24 09:09N 26°46' W 038°48'110.7 24.5
2014-Nov-24 09:06N 26°46' W 038°47'0 0.0 24.5
2014-Nov-24 08:10N 26°46' W 038°47'0 0.0 24.5
2014-Nov-24 07:52N 26°46' W 038°47'0 0.0 24.5
2014-Nov-24 07:29N 26°46' W 038°47'1 0.6 24.5
2014-Nov-24 06:31N 26°46' W 038°47'0 0.0 24.5
2014-Nov-24 06:14N 26°46' W 038°47'0 0.0 24.5
2014-Nov-24 06:02N 26°46' W 038°47'110.7 24.5
2014-Nov-24 05:59N 26°46' W 038°47'124.6 24.5
2014-Nov-24 05:56N 26°47' W 038°48'0 0.0 24.5
2014-Nov-24 04:20N 26°47' W 038°48'1 9.2 24.5
2014-Nov-24 04:13N 26°47' W 038°47'0 0.0 24.5
2014-Nov-24 01:20N 26°47' W 038°47'0 0.0 24.5
2014-Nov-24 01:15N 26°47' W 038°47'1 0.8 24.5
2014-Nov-24 00:32N 26°46' W 038°47'0 0.0 24.5
2014-Nov-23 23:41N 26°46' W 038°47'0 0.0 24.5
2014-Nov-23 22:51N 26°46' W 038°47'112.9 24.5
2014-Nov-23 22:46N 26°46' W 038°46'1 9.2 24.5
2014-Nov-23 22:39N 26°46' W 038°47'1 1.5 24.5
2014-Nov-23 21:56N 26°46' W 038°46'1 0.7 24.5
2014-Nov-23 20:51N 26°47' W 038°46'1 0.6 24.5
2014-Nov-23 19:30N 26°47' W 038°46'0 0.0 24.5
2014-Nov-23 19:16N 26°47' W 038°46'0 0.0 24.5
2014-Nov-23 19:10N 26°47' W 038°46'1 0.6 24.6
2014-Nov-23 17:44N 26°48' W 038°46'1 3.6 24.7
2014-Nov-23 17:35N 26°48' W 038°46'1 9.7 24.7
2014-Nov-23 17:30N 26°49' W 038°46'0 0.0 24.7
2014-Nov-23 15:55N 26°49' W 038°46'1 0.4 24.7
2014-Nov-23 14:03N 26°49' W 038°46'0 0.0 24.5
2014-Nov-23 13:17N 26°49' W 038°46'0 0.0 24.5
2014-Nov-23 13:10N 26°49' W 038°46'0 0.0 24.5
2014-Nov-23 13:07N 26°49' W 038°46'1 0.7 24.5
2014-Nov-23 12:19N 26°49' W 038°46'110.7 24.5
2014-Nov-23 12:16N 26°49' W 038°46'0 0.0 24.5
2014-Nov-23 11:33N 26°49' W 038°46'110.7 24.5
2014-Nov-23 11:30N 26°49' W 038°46'0 0.0 24.5
2014-Nov-23 10:42N 26°49' W 038°46'1 8.0 24.5
2014-Nov-23 10:38N 26°49' W 038°46'0 0.0 24.5
2014-Nov-23 09:37N 26°49' W 038°46'1 6.4 24.5
2014-Nov-23 09:32N 26°49' W 038°45'1 0.7 24.5
2014-Nov-23 08:44N 26°49' W 038°46'1 0.8 24.5
2014-Nov-23 08:03N 26°49' W 038°45'1 2.7 24.5
2014-Nov-23 07:51N 26°49' W 038°46'0 0.0 24.5
2014-Nov-23 07:03N 26°49' W 038°46'1 1.0 24.5
2014-Nov-23 06:28N 26°50' W 038°46'0 0.0 24.5
2014-Nov-23 06:25N 26°50' W 038°46'0 0.0 24.5
2014-Nov-23 06:19N 26°50' W 038°46'1 4.0 24.5
2014-Nov-23 06:10N 26°50' W 038°46'0 0.0 24.5
2014-Nov-23 06:06N 26°50' W 038°46'0 0.0 24.5
2014-Nov-23 04:31N 26°50' W 038°46'1 0.4 24.5
2014-Nov-23 01:37N 26°50' W 038°44'0 0.0 24.5
2014-Nov-23 00:52N 26°50' W 038°44'0 0.0 24.5
2014-Nov-23 00:02N 26°50' W 038°44'1 4.6 24.5
2014-Nov-22 23:55N 26°50' W 038°45'1 0.9 24.5
2014-Nov-22 23:00N 26°50' W 038°44'0 0.0 24.5
2014-Nov-22 22:20N 26°50' W 038°44'0 0.0 24.5
2014-Nov-22 22:16N 26°50' W 038°44'0 0.0 24.5
2014-Nov-22 21:34N 26°50' W 038°44'1 3.2 24.5
2014-Nov-22 21:14N 26°50' W 038°43'0 0.0 24.5
2014-Nov-22 19:53N 26°50' W 038°43'1 9.2 24.5
2014-Nov-22 19:45N 26°50' W 038°44'0 3.0 24.5
2014-Nov-22 19:41N 26°51' W 038°44'1 0.3 24.5
2014-Nov-22 17:52N 26°51' W 038°44'1 8.0
2014-Nov-22 17:46N 26°52' W 038°43'1 0.5 24.6
2014-Nov-22 16:06N 26°51' W 038°44'1 0.8 24.6
2014-Nov-22 14:22N 26°52' W 038°43'0 0.0 24.5
2014-Nov-22 13:36N 26°52' W 038°43'1 0.9 24.5
2014-Nov-22 12:41N 26°53' W 038°44'0 0.0 24.5
2014-Nov-22 12:38N 26°53' W 038°44'0 0.0 24.5
2014-Nov-22 12:35N 26°53' W 038°44'0 0.0 24.5
2014-Nov-22 11:56N 26°53' W 038°44'1 6.9 24.5
2014-Nov-22 11:49N 26°53' W 038°44'0 0.0 24.5
2014-Nov-22 11:01N 26°53' W 038°44'1 9.6 24.5
2014-Nov-22 10:56N 26°53' W 038°44'0 0.0 24.5
2014-Nov-22 10:00N 26°53' W 038°44'0 0.2 24.5
2014-Nov-22 09:09N 26°53' W 038°44'1 0.8 24.5
2014-Nov-22 08:15N 26°53' W 038°44'0 0.0 24.5
2014-Nov-22 07:36N 26°53' W 038°44'1 1.1 24.5
2014-Nov-22 06:39N 26°53' W 038°45'0 0.0 24.5
2014-Nov-22 06:36N 26°53' W 038°45'316.0 24.5
2014-Nov-22 06:25N 26°55' W 038°42'216.7 24.5
2014-Nov-22 06:17N 26°54' W 038°44'0 0.3 24.5
2014-Nov-22 04:47N 26°54' W 038°45'0 2.4 24.5
2014-Nov-22 04:42N 26°54' W 038°45'110.5 24.5
2014-Nov-22 04:35N 26°53' W 038°44'0 0.0 24.5
2014-Nov-22 03:01N 26°53' W 038°44'1 0.2 24.5
2014-Nov-22 00:22N 26°54' W 038°44'2 1.7 24.5
2014-Nov-21 23:26N 26°54' W 038°46'2 3.0
2014-Nov-21 22:37N 26°54' W 038°43'0 0.6 24.5
2014-Nov-21 22:02N 26°53' W 038°43'0 0.2 24.5
2014-Nov-21 20:26N 26°54' W 038°42'0 1.4 24.5
2014-Nov-21 20:15N 26°54' W 038°43'1 1.9 24.5
2014-Nov-21 19:50N 26°53' W 038°43'1 0.4 24.5
2014-Nov-21 18:09N 26°54' W 038°43'0 0.0 24.6
2014-Nov-21 17:55N 26°54' W 038°43'1 0.3 24.6
2014-Nov-21 16:17N 26°54' W 038°44'2 1.2 24.6
2014-Nov-21 14:34N 26°55' W 038°42'1 1.2 24.5
2014-Nov-21 13:53N 26°56' W 038°43'0 0.0 24.5
2014-Nov-21 12:19N 26°56' W 038°43'0 0.0 24.5
2014-Nov-21 12:15N 26°56' W 038°43'1 0.6 24.5
2014-Nov-21 11:24N 26°56' W 038°42'1 5.3 24.5
2014-Nov-21 11:18N 26°56' W 038°41'0 0.0 24.5
2014-Nov-21 09:45N 26°56' W 038°41'1 1.1 24.5
2014-Nov-21 08:40N 26°56' W 038°43'1 4.0 24.5
2014-Nov-21 08:28N 26°57' W 038°42'1 2.1 24.5
2014-Nov-21 08:05N 26°56' W 038°41'1 0.8 24.5
2014-Nov-21 07:04N 26°57' W 038°42'0 0.0 24.5
2014-Nov-21 06:48N 26°57' W 038°42'329.4 24.5
2014-Nov-21 06:41N 26°58' W 038°46'0 0.0 24.5
2014-Nov-21 06:34N 26°58' W 038°46'0 0.0 24.5
2014-Nov-21 04:56N 26°58' W 038°46'0 0.0 24.5
2014-Nov-21 04:53N 26°58' W 038°46'327.4 24.5
2014-Nov-21 04:47N 26°58' W 038°43'0 0.0 24.5
2014-Nov-21 03:12N 26°58' W 038°43'0 0.0 24.5
2014-Nov-21 00:42N 26°58' W 038°43'1 0.7 24.5
2014-Nov-20 23:54N 26°58' W 038°43'0 0.0 24.6
2014-Nov-20 23:51N 26°58' W 038°43'0 0.0 24.6
2014-Nov-20 23:02N 26°58' W 038°43'112.3 24.6
2014-Nov-20 22:56N 26°57' W 038°42'0 0.0 24.6
2014-Nov-20 22:33N 26°57' W 038°42'0 0.0 24.6
2014-Nov-20 22:07N 26°57' W 038°42'0 0.0
2014-Nov-20 20:47N 26°57' W 038°42'0 0.0 24.6
2014-Nov-20 20:26N 26°57' W 038°42'1 1.4 24.6
2014-Nov-20 20:03N 26°57' W 038°43'0 0.0 24.6
2014-Nov-20 18:45N 26°57' W 038°43'0 0.0 24.6
2014-Nov-20 18:43N 26°57' W 038°43'0 0.0 24.6
2014-Nov-20 18:23N 26°57' W 038°43'1 4.3 24.6
2014-Nov-20 18:06N 26°58' W 038°41'0 0.0 24.6
2014-Nov-20 16:28N 26°58' W 038°41'0 0.0 24.6
2014-Nov-20 16:25N 26°58' W 038°41'1 0.3 24.6
2014-Nov-20 14:47N 26°58' W 038°42'1 1.3 24.6
2014-Nov-20 14:10N 26°58' W 038°41'0 0.0 24.6
2014-Nov-20 12:41N 26°58' W 038°41'1 2.7 24.6
2014-Nov-20 12:29N 26°58' W 038°41'0 0.0 24.6
2014-Nov-20 11:44N 26°58' W 038°41'112.0 24.6
2014-Nov-20 11:38N 26°59' W 038°41'1 0.7 24.6
2014-Nov-20 10:52N 26°59' W 038°40'0 0.0 24.6
2014-Nov-20 10:11N 26°59' W 038°40'0 0.0
2014-Nov-20 09:10N 26°59' W 038°40'0 0.0 24.6
2014-Nov-20 09:03N 26°59' W 038°40'0 0.0 24.6
2014-Nov-20 08:42N 26°59' W 038°40'1 6.4 24.6
2014-Nov-20 08:37N 26°59' W 038°41'110.7 24.6
2014-Nov-20 08:34N 26°59' W 038°40'0 0.0 24.6
2014-Nov-20 07:30N 26°59' W 038°40'1 9.6 24.6
2014-Nov-20 07:25N 27°00' W 038°41'0 0.0 24.6
2014-Nov-20 07:22N 27°00' W 038°41'0 0.0 24.6
2014-Nov-20 06:59N 27°00' W 038°41'110.7 24.6
2014-Nov-20 06:56N 27°00' W 038°40'1 3.6 24.6
2014-Nov-20 06:47N 27°00' W 038°41'0 0.2 24.6
2014-Nov-20 05:10N 27°00' W 038°41'0 4.8 24.6
2014-Nov-20 05:06N 27°00' W 038°41'0 0.0 24.6
2014-Nov-20 04:55N 27°00' W 038°41'0 0.0
2014-Nov-20 03:26N 27°00' W 038°41'124.0
2014-Nov-20 03:23N 27°01' W 038°41'0 0.0 24.7
2014-Nov-20 01:00N 27°01' W 038°41'112.1 24.7
2014-Nov-20 00:56N 27°01' W 038°41'0 0.0 24.7
2014-Nov-20 00:14N 27°01' W 038°41'217.1 24.7
2014-Nov-20 00:08N 27°01' W 038°43'0 0.0 24.7
2014-Nov-19 23:24N 27°01' W 038°43'217.1 24.7
2014-Nov-19 23:18N 27°01' W 038°41'0 0.0 24.7
2014-Nov-19 23:15N 27°01' W 038°41'0 0.4 24.7
2014-Nov-19 22:30N 27°00' W 038°42'0 0.3 24.7
2014-Nov-19 21:21N 27°01' W 038°41'0 0.0 24.7
2014-Nov-19 20:50N 27°01' W 038°41'1 2.0 24.7
2014-Nov-19 20:14N 27°00' W 038°43'1 2.8 24.7
2014-Nov-19 19:48N 26°59' W 038°41'1 9.2 24.7
2014-Nov-19 19:40N 27°00' W 038°43'1 1.0 24.7
2014-Nov-19 19:09N 27°00' W 038°42'1 0.9 24.7
2014-Nov-19 18:34N 27°00' W 038°43'2 5.3 24.8
2014-Nov-19 18:16N 27°00' W 038°41'0 0.0 24.8
2014-Nov-19 16:50N 27°00' W 038°41'1 3.6 24.8
2014-Nov-19 16:41N 27°00' W 038°41'1 0.6 24.8
2014-Nov-19 14:56N 27°00' W 038°40'0 0.0 24.8
2014-Nov-19 13:47N 27°00' W 038°40'0 0.0 24.8
2014-Nov-19 13:00N 27°00' W 038°40'1 8.0 24.8
2014-Nov-19 12:54N 27°01' W 038°41'0 0.0 24.8
2014-Nov-19 12:03N 27°01' W 038°41'1 4.0 24.8
2014-Nov-19 11:55N 27°01' W 038°40'0 0.1
2014-Nov-19 11:20N 27°01' W 038°40'0 0.6 24.7
2014-Nov-19 11:15N 27°01' W 038°40'112.0 24.7
2014-Nov-19 11:12N 27°01' W 038°40'0 0.0 24.7
2014-Nov-19 09:36N 27°01' W 038°40'0 0.0 24.7
2014-Nov-19 09:30N 27°01' W 038°40'0 0.0 24.7
2014-Nov-19 09:07N 27°01' W 038°40'0 0.0 24.7
2014-Nov-19 08:53N 27°01' W 038°40'110.7 24.7
2014-Nov-19 08:50N 27°01' W 038°40'0 0.0 24.7
2014-Nov-19 08:45N 27°01' W 038°40'0 0.0 24.7
2014-Nov-19 07:53N 27°01' W 038°40'0 0.5 24.8
2014-Nov-19 07:26N 27°01' W 038°39'0 0.9 24.8
2014-Nov-19 07:10N 27°01' W 038°40'1 2.4 24.7
2014-Nov-19 06:55N 27°02' W 038°40'0 0.0 24.7
2014-Nov-19 05:17N 27°02' W 038°40'0 0.0 24.8
2014-Nov-19 05:09N 27°02' W 038°40'1 0.5 24.8
2014-Nov-19 03:34N 27°02' W 038°39'0 0.0 24.8
2014-Nov-19 03:29N 27°02' W 038°39'0 0.0 24.8
2014-Nov-19 01:18N 27°02' W 038°39'1 0.8 24.8
2014-Nov-19 00:36N 27°02' W 038°40'0 0.0 24.8
2014-Nov-18 23:44N 27°02' W 038°40'0 0.0 24.8
2014-Nov-18 22:55N 27°02' W 038°40'1 1.4 24.8
2014-Nov-18 22:01N 27°02' W 038°41'0 0.0 24.8
2014-Nov-18 21:58N 27°02' W 038°41'0 0.0 24.8
2014-Nov-18 21:09N 27°02' W 038°41'1 0.7 24.8
2014-Nov-18 20:23N 27°02' W 038°40'0 1.3 24.8
2014-Nov-18 20:09N 27°01' W 038°40'0 0.5 24.8
2014-Nov-18 19:36N 27°02' W 038°40'0 0.0 24.8
2014-Nov-18 18:47N 27°02' W 038°40'0 2.6 24.8
2014-Nov-18 18:40N 27°01' W 038°40'0 0.4 24.9
2014-Nov-18 17:50N 27°02' W 038°40'1 0.7 24.9
2014-Nov-18 17:01N 27°01' W 038°40'0 0.0 24.9
2014-Nov-18 16:52N 27°01' W 038°40'0 0.0 24.9
2014-Nov-18 15:09N 27°01' W 038°40'0 0.3 24.9
2014-Nov-18 14:06N 27°01' W 038°40'0 0.4 24.9
2014-Nov-18 13:21N 27°01' W 038°40'110.3 24.9
2014-Nov-18 13:17N 27°01' W 038°39'1 5.5 24.9
2014-Nov-18 13:09N 27°01' W 038°39'1 0.8 24.9
2014-Nov-18 11:33N 27°01' W 038°38'1 0.5 24.9
2014-Nov-18 09:54N 27°01' W 038°38'1 3.0 24.9
2014-Nov-18 09:38N 27°01' W 038°39'1 1.3 24.9
2014-Nov-18 09:01N 27°01' W 038°38'0 0.0 24.9
2014-Nov-18 08:55N 27°01' W 038°38'0 0.0 24.9
2014-Nov-18 08:01N 27°01' W 038°38'1 1.8 24.9
2014-Nov-18 07:21N 27°01' W 038°40'116.0 24.9
2014-Nov-18 07:17N 27°01' W 038°38'0 0.0 24.9
2014-Nov-18 06:40N 27°01' W 038°38'1 1.1 24.9
2014-Nov-18 05:40N 27°01' W 038°37'0 0.0 24.9
2014-Nov-18 05:26N 27°01' W 038°37'1 0.4 24.9
2014-Nov-18 03:50N 27°02' W 038°37'0 0.0 24.9
2014-Nov-18 03:46N 27°02' W 038°37'216.0 24.9
2014-Nov-18 03:40N 27°02' W 038°35'0 0.0 24.9
2014-Nov-18 01:39N 27°02' W 038°35'1 1.6 25.0
2014-Nov-18 00:52N 27°02' W 038°37'0 0.0 24.9
2014-Nov-18 00:06N 27°02' W 038°37'0 0.0 25.0
2014-Nov-18 00:03N 27°02' W 038°37'0 0.0 25.0
2014-Nov-17 23:17N 27°02' W 038°37'0 0.0 25.0
2014-Nov-17 22:23N 27°02' W 038°37'1 7.2 25.0
2014-Nov-17 22:18N 27°03' W 038°37'1 0.3 25.0
2014-Nov-17 20:42N 27°03' W 038°36'0 0.0 25.1
2014-Nov-17 20:36N 27°03' W 038°36'1 1.8 25.1
2014-Nov-17 20:00N 27°03' W 038°37'116.0 25.1
2014-Nov-17 19:56N 27°03' W 038°36'1 1.1 25.1
2014-Nov-17 18:56N 27°03' W 038°37'1 0.9 25.2
2014-Nov-17 18:16N 27°04' W 038°37'1 0.5 25.2
2014-Nov-17 17:15N 27°04' W 038°37'1 2.5 25.3
2014-Nov-17 17:02N 27°04' W 038°36'1 5.3 25.3
2014-Nov-17 16:56N 27°04' W 038°37'1 0.3 25.3
2014-Nov-17 15:21N 27°04' W 038°37'1 0.3 25.2
2014-Nov-17 13:37N 27°04' W 038°37'0 0.0 25.0
2014-Nov-17 13:32N 27°04' W 038°37'0 0.0 25.0
2014-Nov-17 12:51N 27°04' W 038°37'0 0.0 25.0
2014-Nov-17 12:45N 27°04' W 038°37'1 5.3 25.0
2014-Nov-17 12:39N 27°04' W 038°37'   25.0
Track history (hours):
 
Tides and Currents Weather Stations Pressure Air Temp Water Temp Dewpoint Dewpoint Depression Visibility Wind Speed Wind Dir Waves Ship Positions

Drifting buoy 13526

Last reported at 2014-Nov-27 12:38 UTC. Time now 2014-Nov-27 14:10 UTC.
Position N 26°43' W 039°03'.

Water temperature 24.2 ° C

Date/timePositionNaut miles runAvg speedWind from/ knotsBaromVisibWave heightAir tempDewpointWater temp
2014-Nov-27 12:38N 26°43' W 039°03'1 5.4 24.2
2014-Nov-27 12:32N 26°43' W 039°02'1 0.8 24.2
2014-Nov-27 10:55N 26°42' W 039°01'0 0.0 24.2
2014-Nov-27 09:56N 26°42' W 039°01'1 4.3 24.2
2014-Nov-27 09:39N 26°43' W 039°00'0 0.0 24.2
2014-Nov-27 09:00N 26°43' W 039°00'0 0.0 24.2
2014-Nov-27 08:54N 26°43' W 039°00'0 0.0 24.2
2014-Nov-27 08:18N 26°43' W 039°00'1 1.4 24.2
2014-Nov-27 07:56N 26°42' W 039°01'011.3 24.2
2014-Nov-27 07:55N 26°43' W 039°01'0 0.0 24.2
2014-Nov-27 07:19N 26°43' W 039°01'0 0.0 24.2
2014-Nov-27 06:35N 26°43' W 039°01'0 0.0 24.2
2014-Nov-27 06:16N 26°43' W 039°01'0 0.0 24.2
2014-Nov-27 05:38N 26°43' W 039°01'0 0.0 24.2
2014-Nov-27 05:27N 26°43' W 039°01'0 0.0 24.2
2014-Nov-27 05:21N 26°43' W 039°01'0 0.0 24.2
2014-Nov-27 03:48N 26°43' W 039°01'216.1 24.2
2014-Nov-27 03:42N 26°41' W 038°59'0 0.1 24.2
2014-Nov-27 01:08N 26°42' W 038°59'166.1 24.3
2014-Nov-27 01:07N 26°42' W 039°01'0 0.0 24.3
2014-Nov-27 00:19N 26°42' W 039°01'0 0.0 24.3
2014-Nov-27 00:16N 26°42' W 039°01'1 1.4 24.3
2014-Nov-26 23:29N 26°42' W 038°59'0 0.0 24.3
2014-Nov-26 22:41N 26°42' W 038°59'0 0.0 24.3
2014-Nov-26 22:36N 26°42' W 038°59'112.3 24.3
2014-Nov-26 22:30N 26°41' W 038°58'0 0.1 24.3
2014-Nov-26 21:09N 26°41' W 038°58'0 0.1 24.3
2014-Nov-26 20:32N 26°41' W 038°58'2 1.8 24.3
2014-Nov-26 19:39N 26°43' W 038°59'0 0.0 24.3
2014-Nov-26 19:22N 26°43' W 038°59'0 0.0 24.3
2014-Nov-26 18:56N 26°43' W 038°59'0 0.0 24.3
2014-Nov-26 18:53N 26°43' W 038°59'0 0.0 24.3
2014-Nov-26 17:56N 26°43' W 038°59'1 1.3 24.4
2014-Nov-26 17:08N 26°43' W 038°58'0 0.0 24.4
2014-Nov-26 17:02N 26°43' W 038°58'1 0.4 24.4
2014-Nov-26 15:21N 26°42' W 038°58'1 0.4 24.4
2014-Nov-26 13:54N 26°42' W 038°58'1 0.6 24.4
2014-Nov-26 13:00N 26°42' W 038°57'0 0.4 24.4
2014-Nov-26 12:08N 26°42' W 038°57'116.1 24.4
2014-Nov-26 12:05N 26°41' W 038°56'1 0.7 24.4
2014-Nov-26 11:16N 26°42' W 038°56'0 0.0 24.4
2014-Nov-26 09:54N 26°42' W 038°56'1 0.7 24.4
2014-Nov-26 09:08N 26°42' W 038°56'1 1.8 24.4
2014-Nov-26 08:50N 26°42' W 038°56'1 1.0 24.3
2014-Nov-26 08:16N 26°42' W 038°56'0 0.1 24.4
2014-Nov-26 07:09N 26°42' W 038°56'2 3.4 24.4
2014-Nov-26 06:41N 26°42' W 038°54'0 0.0 24.4
2014-Nov-26 05:38N 26°42' W 038°54'1 0.7 24.4
2014-Nov-26 03:56N 26°43' W 038°55'112.1 24.4
2014-Nov-26 03:52N 26°42' W 038°55'1 0.4 24.4
2014-Nov-26 00:39N 26°41' W 038°56'0 0.0 24.4
2014-Nov-25 23:52N 26°41' W 038°56'211.1 24.4
2014-Nov-25 23:43N 26°41' W 038°54'0 0.1 24.4
2014-Nov-25 23:00N 26°41' W 038°54'1 4.0 24.4
2014-Nov-25 22:52N 26°41' W 038°53'0 0.0 24.4
2014-Nov-25 21:40N 26°41' W 038°53'1 1.4 24.4
2014-Nov-25 20:42N 26°42' W 038°52'0 0.3 24.4
2014-Nov-25 20:03N 26°42' W 038°52'0 0.0 24.4
2014-Nov-25 19:07N 26°42' W 038°52'1 7.2 24.5
2014-Nov-25 19:02N 26°41' W 038°52'0 0.0 24.5
2014-Nov-25 19:00N 26°41' W 038°52'1 1.9 24.5
2014-Nov-25 18:22N 26°43' W 038°52'0 0.1 24.5
2014-Nov-25 17:22N 26°43' W 038°52'1 6.2 24.5
2014-Nov-25 17:13N 26°42' W 038°53'111.2 24.5
2014-Nov-25 17:08N 26°43' W 038°52'1 0.4 24.5
2014-Nov-25 15:33N 26°42' W 038°53'1 0.2 24.5
2014-Nov-25 12:37N 26°43' W 038°52'1 4.0 24.4
2014-Nov-25 12:29N 26°43' W 038°53'0 0.0 24.4
2014-Nov-25 12:26N 26°43' W 038°53'0 0.0 24.4
2014-Nov-25 11:45N 26°43' W 038°53'110.7 24.4
2014-Nov-25 11:42N 26°43' W 038°52'1 6.0 24.4
2014-Nov-25 11:36N 26°43' W 038°52'0 0.0 24.4
2014-Nov-25 10:47N 26°43' W 038°52'1 0.9
2014-Nov-25 09:21N 26°43' W 038°51'0 0.0 24.4
2014-Nov-25 08:42N 26°43' W 038°51'0 0.0 24.4
2014-Nov-25 07:41N 26°43' W 038°51'136.0 24.4
2014-Nov-25 07:40N 26°42' W 038°51'0 0.0 24.4
2014-Nov-25 06:03N 26°42' W 038°51'1 4.5 24.4
2014-Nov-25 05:55N 26°43' W 038°51'0 0.0 24.4
2014-Nov-25 05:51N 26°43' W 038°51'0 0.0 24.4
2014-Nov-25 05:48N 26°43' W 038°51'0 3.4 24.4
2014-Nov-25 05:43N 26°43' W 038°51'0 0.2 24.4
2014-Nov-25 04:10N 26°43' W 038°51'1 9.2 24.5
2014-Nov-25 04:03N 26°43' W 038°50'0 0.0 24.5
2014-Nov-25 00:56N 26°43' W 038°50'0 0.0 24.5
2014-Nov-25 00:55N 26°43' W 038°50'0 0.0 24.5
2014-Nov-25 00:10N 26°43' W 038°50'0 0.0 24.5
2014-Nov-25 00:07N 26°43' W 038°50'110.7 24.5
2014-Nov-25 00:04N 26°43' W 038°50'0 0.0 24.5
2014-Nov-24 23:18N 26°43' W 038°50'0 0.0 24.5
2014-Nov-24 23:12N 26°43' W 038°50'1 1.4 24.5
2014-Nov-24 22:26N 26°43' W 038°49'0 0.0 24.5
2014-Nov-24 22:09N 26°43' W 038°49'1 0.5 24.5
2014-Nov-24 20:26N 26°43' W 038°49'1 0.5 24.5
2014-Nov-24 19:17N 26°43' W 038°48'121.4 24.5
2014-Nov-24 19:14N 26°43' W 038°49'2 3.6 24.5
2014-Nov-24 18:47N 26°43' W 038°47'1 0.7 24.5
2014-Nov-24 17:36N 26°44' W 038°48'1 3.4 24.5
2014-Nov-24 17:22N 26°44' W 038°49'0 0.0 24.5
2014-Nov-24 15:41N 26°44' W 038°49'1 0.6 24.5
2014-Nov-24 13:45N 26°45' W 038°47'1 0.7 24.5
2014-Nov-24 12:56N 26°46' W 038°47'1 6.4 24.5
2014-Nov-24 12:51N 26°46' W 038°48'0 0.0 24.5
2014-Nov-24 12:00N 26°46' W 038°48'1 8.0 24.5
2014-Nov-24 11:56N 26°46' W 038°49'0 0.0 24.5
2014-Nov-24 11:08N 26°46' W 038°49'0 0.0 24.5
2014-Nov-24 09:50N 26°46' W 038°49'1 1.8 24.5
2014-Nov-24 09:32N 26°46' W 038°48'0 0.0 24.5
2014-Nov-24 09:09N 26°46' W 038°48'110.7 24.5
2014-Nov-24 09:06N 26°46' W 038°47'0 0.0 24.5
2014-Nov-24 08:10N 26°46' W 038°47'0 0.0 24.5
2014-Nov-24 07:52N 26°46' W 038°47'0 0.0 24.5
2014-Nov-24 07:29N 26°46' W 038°47'1 0.6 24.5
2014-Nov-24 06:31N 26°46' W 038°47'0 0.0 24.5
2014-Nov-24 06:14N 26°46' W 038°47'0 0.0 24.5
2014-Nov-24 06:02N 26°46' W 038°47'110.7 24.5
2014-Nov-24 05:59N 26°46' W 038°47'124.6 24.5
2014-Nov-24 05:56N 26°47' W 038°48'0 0.0 24.5
2014-Nov-24 04:20N 26°47' W 038°48'1 9.2 24.5
2014-Nov-24 04:13N 26°47' W 038°47'0 0.0 24.5
2014-Nov-24 01:20N 26°47' W 038°47'0 0.0 24.5
2014-Nov-24 01:15N 26°47' W 038°47'1 0.8 24.5
2014-Nov-24 00:32N 26°46' W 038°47'0 0.0 24.5
2014-Nov-23 23:41N 26°46' W 038°47'0 0.0 24.5
2014-Nov-23 22:51N 26°46' W 038°47'112.9 24.5
2014-Nov-23 22:46N 26°46' W 038°46'1 9.2 24.5
2014-Nov-23 22:39N 26°46' W 038°47'1 1.5 24.5
2014-Nov-23 21:56N 26°46' W 038°46'1 0.7 24.5
2014-Nov-23 20:51N 26°47' W 038°46'1 0.6 24.5
2014-Nov-23 19:30N 26°47' W 038°46'0 0.0 24.5
2014-Nov-23 19:16N 26°47' W 038°46'0 0.0 24.5
2014-Nov-23 19:10N 26°47' W 038°46'1 0.6 24.6
2014-Nov-23 17:44N 26°48' W 038°46'1 3.6 24.7
2014-Nov-23 17:35N 26°48' W 038°46'1 9.7 24.7
2014-Nov-23 17:30N 26°49' W 038°46'0 0.0 24.7
2014-Nov-23 15:55N 26°49' W 038°46'1 0.4 24.7
2014-Nov-23 14:03N 26°49' W 038°46'0 0.0 24.5
2014-Nov-23 13:17N 26°49' W 038°46'0 0.0 24.5
2014-Nov-23 13:10N 26°49' W 038°46'0 0.0 24.5
2014-Nov-23 13:07N 26°49' W 038°46'1 0.7 24.5
2014-Nov-23 12:19N 26°49' W 038°46'110.7 24.5
2014-Nov-23 12:16N 26°49' W 038°46'0 0.0 24.5
2014-Nov-23 11:33N 26°49' W 038°46'110.7 24.5
2014-Nov-23 11:30N 26°49' W 038°46'0 0.0 24.5
2014-Nov-23 10:42N 26°49' W 038°46'1 8.0 24.5
2014-Nov-23 10:38N 26°49' W 038°46'0 0.0 24.5
2014-Nov-23 09:37N 26°49' W 038°46'1 6.4 24.5
2014-Nov-23 09:32N 26°49' W 038°45'1 0.7 24.5
2014-Nov-23 08:44N 26°49' W 038°46'1 0.8 24.5
2014-Nov-23 08:03N 26°49' W 038°45'1 2.7 24.5
2014-Nov-23 07:51N 26°49' W 038°46'0 0.0 24.5
2014-Nov-23 07:03N 26°49' W 038°46'1 1.0 24.5
2014-Nov-23 06:28N 26°50' W 038°46'0 0.0 24.5
2014-Nov-23 06:25N 26°50' W 038°46'0 0.0 24.5
2014-Nov-23 06:19N 26°50' W 038°46'1 4.0 24.5
2014-Nov-23 06:10N 26°50' W 038°46'0 0.0 24.5
2014-Nov-23 06:06N 26°50' W 038°46'0 0.0 24.5
2014-Nov-23 04:31N 26°50' W 038°46'1 0.4 24.5
2014-Nov-23 01:37N 26°50' W 038°44'0 0.0 24.5
2014-Nov-23 00:52N 26°50' W 038°44'0 0.0 24.5
2014-Nov-23 00:02N 26°50' W 038°44'1 4.6 24.5
2014-Nov-22 23:55N 26°50' W 038°45'1 0.9 24.5
2014-Nov-22 23:00N 26°50' W 038°44'0 0.0 24.5
2014-Nov-22 22:20N 26°50' W 038°44'0 0.0 24.5
2014-Nov-22 22:16N 26°50' W 038°44'0 0.0 24.5
2014-Nov-22 21:34N 26°50' W 038°44'1 3.2 24.5
2014-Nov-22 21:14N 26°50' W 038°43'0 0.0 24.5
2014-Nov-22 19:53N 26°50' W 038°43'1 9.2 24.5
2014-Nov-22 19:45N 26°50' W 038°44'0 3.0 24.5
2014-Nov-22 19:41N 26°51' W 038°44'1 0.3 24.5
2014-Nov-22 17:52N 26°51' W 038°44'1 8.0
2014-Nov-22 17:46N 26°52' W 038°43'1 0.5 24.6
2014-Nov-22 16:06N 26°51' W 038°44'1 0.8 24.6
2014-Nov-22 14:22N 26°52' W 038°43'0 0.0 24.5
2014-Nov-22 13:36N 26°52' W 038°43'1 0.9 24.5
2014-Nov-22 12:41N 26°53' W 038°44'0 0.0 24.5
2014-Nov-22 12:38N 26°53' W 038°44'0 0.0 24.5
2014-Nov-22 12:35N 26°53' W 038°44'0 0.0 24.5
2014-Nov-22 11:56N 26°53' W 038°44'1 6.9 24.5
2014-Nov-22 11:49N 26°53' W 038°44'0 0.0 24.5
2014-Nov-22 11:01N 26°53' W 038°44'1 9.6 24.5
2014-Nov-22 10:56N 26°53' W 038°44'0 0.0 24.5
2014-Nov-22 10:00N 26°53' W 038°44'0 0.2 24.5
2014-Nov-22 09:09N 26°53' W 038°44'1 0.8 24.5
2014-Nov-22 08:15N 26°53' W 038°44'0 0.0 24.5
2014-Nov-22 07:36N 26°53' W 038°44'1 1.1 24.5
2014-Nov-22 06:39N 26°53' W 038°45'0 0.0 24.5
2014-Nov-22 06:36N 26°53' W 038°45'316.0 24.5
2014-Nov-22 06:25N 26°55' W 038°42'216.7 24.5
2014-Nov-22 06:17N 26°54' W 038°44'0 0.3 24.5
2014-Nov-22 04:47N 26°54' W 038°45'0 2.4 24.5
2014-Nov-22 04:42N 26°54' W 038°45'110.5 24.5
2014-Nov-22 04:35N 26°53' W 038°44'0 0.0 24.5
2014-Nov-22 03:01N 26°53' W 038°44'1 0.2 24.5
2014-Nov-22 00:22N 26°54' W 038°44'2 1.7 24.5
2014-Nov-21 23:26N 26°54' W 038°46'2 3.0
2014-Nov-21 22:37N 26°54' W 038°43'0 0.6 24.5
2014-Nov-21 22:02N 26°53' W 038°43'0 0.2 24.5
2014-Nov-21 20:26N 26°54' W 038°42'0 1.4 24.5
2014-Nov-21 20:15N 26°54' W 038°43'1 1.9 24.5
2014-Nov-21 19:50N 26°53' W 038°43'1 0.4 24.5
2014-Nov-21 18:09N 26°54' W 038°43'0 0.0 24.6
2014-Nov-21 17:55N 26°54' W 038°43'1 0.3 24.6
2014-Nov-21 16:17N 26°54' W 038°44'2 1.2 24.6
2014-Nov-21 14:34N 26°55' W 038°42'1 1.2 24.5
2014-Nov-21 13:53N 26°56' W 038°43'0 0.0 24.5
2014-Nov-21 12:19N 26°56' W 038°43'0 0.0 24.5
2014-Nov-21 12:15N 26°56' W 038°43'1 0.6 24.5
2014-Nov-21 11:24N 26°56' W 038°42'1 5.3 24.5
2014-Nov-21 11:18N 26°56' W 038°41'0 0.0 24.5
2014-Nov-21 09:45N 26°56' W 038°41'1 1.1 24.5
2014-Nov-21 08:40N 26°56' W 038°43'1 4.0 24.5
2014-Nov-21 08:28N 26°57' W 038°42'1 2.1 24.5
2014-Nov-21 08:05N 26°56' W 038°41'1 0.8 24.5
2014-Nov-21 07:04N 26°57' W 038°42'0 0.0 24.5
2014-Nov-21 06:48N 26°57' W 038°42'329.4 24.5
2014-Nov-21 06:41N 26°58' W 038°46'0 0.0 24.5
2014-Nov-21 06:34N 26°58' W 038°46'0 0.0 24.5
2014-Nov-21 04:56N 26°58' W 038°46'0 0.0 24.5
2014-Nov-21 04:53N 26°58' W 038°46'327.4 24.5
2014-Nov-21 04:47N 26°58' W 038°43'0 0.0 24.5
2014-Nov-21 03:12N 26°58' W 038°43'0 0.0 24.5
2014-Nov-21 00:42N 26°58' W 038°43'1 0.7 24.5
2014-Nov-20 23:54N 26°58' W 038°43'0 0.0 24.6
2014-Nov-20 23:51N 26°58' W 038°43'0 0.0 24.6
2014-Nov-20 23:02N 26°58' W 038°43'112.3 24.6
2014-Nov-20 22:56N 26°57' W 038°42'0 0.0 24.6
2014-Nov-20 22:33N 26°57' W 038°42'0 0.0 24.6
2014-Nov-20 22:07N 26°57' W 038°42'0 0.0
2014-Nov-20 20:47N 26°57' W 038°42'0 0.0 24.6
2014-Nov-20 20:26N 26°57' W 038°42'1 1.4 24.6
2014-Nov-20 20:03N 26°57' W 038°43'0 0.0 24.6
2014-Nov-20 18:45N 26°57' W 038°43'0 0.0 24.6
2014-Nov-20 18:43N 26°57' W 038°43'0 0.0 24.6
2014-Nov-20 18:23N 26°57' W 038°43'1 4.3 24.6
2014-Nov-20 18:06N 26°58' W 038°41'0 0.0 24.6
2014-Nov-20 16:28N 26°58' W 038°41'0 0.0 24.6
2014-Nov-20 16:25N 26°58' W 038°41'1 0.3 24.6
2014-Nov-20 14:47N 26°58' W 038°42'1 1.3 24.6
2014-Nov-20 14:10N 26°58' W 038°41'0 0.0 24.6
2014-Nov-20 12:41N 26°58' W 038°41'1 2.7 24.6
2014-Nov-20 12:29N 26°58' W 038°41'0 0.0 24.6
2014-Nov-20 11:44N 26°58' W 038°41'112.0 24.6
2014-Nov-20 11:38N 26°59' W 038°41'1 0.7 24.6
2014-Nov-20 10:52N 26°59' W 038°40'0 0.0 24.6
2014-Nov-20 10:11N 26°59' W 038°40'0 0.0
2014-Nov-20 09:10N 26°59' W 038°40'0 0.0 24.6
2014-Nov-20 09:03N 26°59' W 038°40'0 0.0 24.6
2014-Nov-20 08:42N 26°59' W 038°40'1 6.4 24.6
2014-Nov-20 08:37N 26°59' W 038°41'110.7 24.6
2014-Nov-20 08:34N 26°59' W 038°40'0 0.0 24.6
2014-Nov-20 07:30N 26°59' W 038°40'1 9.6 24.6
2014-Nov-20 07:25N 27°00' W 038°41'0 0.0 24.6
2014-Nov-20 07:22N 27°00' W 038°41'0 0.0 24.6
2014-Nov-20 06:59N 27°00' W 038°41'110.7 24.6
2014-Nov-20 06:56N 27°00' W 038°40'1 3.6 24.6
2014-Nov-20 06:47N 27°00' W 038°41'0 0.2 24.6
2014-Nov-20 05:10N 27°00' W 038°41'0 4.8 24.6
2014-Nov-20 05:06N 27°00' W 038°41'0 0.0 24.6
2014-Nov-20 04:55N 27°00' W 038°41'0 0.0
2014-Nov-20 03:26N 27°00' W 038°41'124.0
2014-Nov-20 03:23N 27°01' W 038°41'0 0.0 24.7
2014-Nov-20 01:00N 27°01' W 038°41'112.1 24.7
2014-Nov-20 00:56N 27°01' W 038°41'0 0.0 24.7
2014-Nov-20 00:14N 27°01' W 038°41'217.1 24.7
2014-Nov-20 00:08N 27°01' W 038°43'0 0.0 24.7
2014-Nov-19 23:24N 27°01' W 038°43'217.1 24.7
2014-Nov-19 23:18N 27°01' W 038°41'0 0.0 24.7
2014-Nov-19 23:15N 27°01' W 038°41'0 0.4 24.7
2014-Nov-19 22:30N 27°00' W 038°42'0 0.3 24.7
2014-Nov-19 21:21N 27°01' W 038°41'0 0.0 24.7
2014-Nov-19 20:50N 27°01' W 038°41'1 2.0 24.7
2014-Nov-19 20:14N 27°00' W 038°43'1 2.8 24.7
2014-Nov-19 19:48N 26°59' W 038°41'1 9.2 24.7
2014-Nov-19 19:40N 27°00' W 038°43'1 1.0 24.7
2014-Nov-19 19:09N 27°00' W 038°42'1 0.9 24.7
2014-Nov-19 18:34N 27°00' W 038°43'2 5.3 24.8
2014-Nov-19 18:16N 27°00' W 038°41'0 0.0 24.8
2014-Nov-19 16:50N 27°00' W 038°41'1 3.6 24.8
2014-Nov-19 16:41N 27°00' W 038°41'1 0.6 24.8
2014-Nov-19 14:56N 27°00' W 038°40'0 0.0 24.8
2014-Nov-19 13:47N 27°00' W 038°40'0 0.0 24.8
2014-Nov-19 13:00N 27°00' W 038°40'1 8.0 24.8
2014-Nov-19 12:54N 27°01' W 038°41'0 0.0 24.8
2014-Nov-19 12:03N 27°01' W 038°41'1 4.0 24.8
2014-Nov-19 11:55N 27°01' W 038°40'0 0.1
2014-Nov-19 11:20N 27°01' W 038°40'0 0.6 24.7
2014-Nov-19 11:15N 27°01' W 038°40'112.0 24.7
2014-Nov-19 11:12N 27°01' W 038°40'0 0.0 24.7
2014-Nov-19 09:36N 27°01' W 038°40'0 0.0 24.7
2014-Nov-19 09:30N 27°01' W 038°40'0 0.0 24.7
2014-Nov-19 09:07N 27°01' W 038°40'0 0.0 24.7
2014-Nov-19 08:53N 27°01' W 038°40'110.7 24.7
2014-Nov-19 08:50N 27°01' W 038°40'0 0.0 24.7
2014-Nov-19 08:45N 27°01' W 038°40'0 0.0 24.7
2014-Nov-19 07:53N 27°01' W 038°40'0 0.5 24.8
2014-Nov-19 07:26N 27°01' W 038°39'0 0.9 24.8
2014-Nov-19 07:10N 27°01' W 038°40'1 2.4 24.7
2014-Nov-19 06:55N 27°02' W 038°40'0 0.0 24.7
2014-Nov-19 05:17N 27°02' W 038°40'0 0.0 24.8
2014-Nov-19 05:09N 27°02' W 038°40'1 0.5 24.8
2014-Nov-19 03:34N 27°02' W 038°39'0 0.0 24.8
2014-Nov-19 03:29N 27°02' W 038°39'0 0.0 24.8
2014-Nov-19 01:18N 27°02' W 038°39'1 0.8 24.8
2014-Nov-19 00:36N 27°02' W 038°40'0 0.0 24.8
2014-Nov-18 23:44N 27°02' W 038°40'0 0.0 24.8
2014-Nov-18 22:55N 27°02' W 038°40'1 1.4 24.8
2014-Nov-18 22:01N 27°02' W 038°41'0 0.0 24.8
2014-Nov-18 21:58N 27°02' W 038°41'0 0.0 24.8
2014-Nov-18 21:09N 27°02' W 038°41'1 0.7 24.8
2014-Nov-18 20:23N 27°02' W 038°40'0 1.3 24.8
2014-Nov-18 20:09N 27°01' W 038°40'0 0.5 24.8
2014-Nov-18 19:36N 27°02' W 038°40'0 0.0 24.8
2014-Nov-18 18:47N 27°02' W 038°40'0 2.6 24.8
2014-Nov-18 18:40N 27°01' W 038°40'0 0.4 24.9
2014-Nov-18 17:50N 27°02' W 038°40'1 0.7 24.9
2014-Nov-18 17:01N 27°01' W 038°40'0 0.0 24.9
2014-Nov-18 16:52N 27°01' W 038°40'0 0.0 24.9
2014-Nov-18 15:09N 27°01' W 038°40'0 0.3 24.9
2014-Nov-18 14:06N 27°01' W 038°40'0 0.4 24.9
2014-Nov-18 13:21N 27°01' W 038°40'110.3 24.9
2014-Nov-18 13:17N 27°01' W 038°39'1 5.5 24.9
2014-Nov-18 13:09N 27°01' W 038°39'1 0.8 24.9
2014-Nov-18 11:33N 27°01' W 038°38'1 0.5 24.9
2014-Nov-18 09:54N 27°01' W 038°38'1 3.0 24.9
2014-Nov-18 09:38N 27°01' W 038°39'1 1.3 24.9
2014-Nov-18 09:01N 27°01' W 038°38'0 0.0 24.9
2014-Nov-18 08:55N 27°01' W 038°38'0 0.0 24.9
2014-Nov-18 08:01N 27°01' W 038°38'1 1.8 24.9
2014-Nov-18 07:21N 27°01' W 038°40'116.0 24.9
2014-Nov-18 07:17N 27°01' W 038°38'0 0.0 24.9
2014-Nov-18 06:40N 27°01' W 038°38'1 1.1 24.9
2014-Nov-18 05:40N 27°01' W 038°37'0 0.0 24.9
2014-Nov-18 05:26N 27°01' W 038°37'1 0.4 24.9
2014-Nov-18 03:50N 27°02' W 038°37'0 0.0 24.9
2014-Nov-18 03:46N 27°02' W 038°37'216.0 24.9
2014-Nov-18 03:40N 27°02' W 038°35'0 0.0 24.9
2014-Nov-18 01:39N 27°02' W 038°35'1 1.6 25.0
2014-Nov-18 00:52N 27°02' W 038°37'0 0.0 24.9
2014-Nov-18 00:06N 27°02' W 038°37'0 0.0 25.0
2014-Nov-18 00:03N 27°02' W 038°37'0 0.0 25.0
2014-Nov-17 23:17N 27°02' W 038°37'0 0.0 25.0
2014-Nov-17 22:23N 27°02' W 038°37'1 7.2 25.0
2014-Nov-17 22:18N 27°03' W 038°37'1 0.3 25.0
2014-Nov-17 20:42N 27°03' W 038°36'0 0.0 25.1
2014-Nov-17 20:36N 27°03' W 038°36'1 1.8 25.1
2014-Nov-17 20:00N 27°03' W 038°37'116.0 25.1
2014-Nov-17 19:56N 27°03' W 038°36'1 1.1 25.1
2014-Nov-17 18:56N 27°03' W 038°37'1 0.9 25.2
2014-Nov-17 18:16N 27°04' W 038°37'1 0.5 25.2
2014-Nov-17 17:15N 27°04' W 038°37'1 2.5 25.3
2014-Nov-17 17:02N 27°04' W 038°36'1 5.3 25.3
2014-Nov-17 16:56N 27°04' W 038°37'1 0.3 25.3
2014-Nov-17 15:21N 27°04' W 038°37'1 0.3 25.2
2014-Nov-17 13:37N 27°04' W 038°37'0 0.0 25.0
2014-Nov-17 13:32N 27°04' W 038°37'0 0.0 25.0
2014-Nov-17 12:51N 27°04' W 038°37'0 0.0 25.0
2014-Nov-17 12:45N 27°04' W 038°37'1 5.3 25.0
2014-Nov-17 12:39N 27°04' W 038°37'   25.0

Dump ship's entire track history